Time;durP1;ratioP1;P1;durP2;ratioP2;P2;SDS_P1;SDS_P2;PMS_P1;PMS_P2;Temp;Humidity;BMP_temperature;BMP_pressure;BME280_temperature;BME280_humidity;BME280_pressure;Samples;Min_cycle;Max_cycle;Signal;HPM_P1;HPM_P2
2022/11/21 00:01:54;;;;;;;1.85;1.10;;;;;;;14.25;48.82;92412.53;5019932;28;20120;-85
2022/11/21 00:04:23;;;;;;;1.90;1.30;;;;;;;14.27;48.67;92416.22;5056126;28;20059;-83
2022/11/21 00:06:50;;;;;;;1.27;1.10;;;;;;;14.25;49.31;92412.53;5071748;28;20118;-84
2022/11/21 00:09:15;;;;;;;2.58;1.40;;;;;;;14.28;49.22;92425.84;5085750;28;20032;-84
2022/11/21 00:11:41;;;;;;;2.47;1.23;;;;;;;14.27;49.11;92410.03;5068269;28;20040;-84
2022/11/21 00:14:06;;;;;;;1.75;1.45;;;;;;;14.26;48.84;92422.16;5051711;28;20064;-86
2022/11/21 00:16:32;;;;;;;2.08;1.63;;;;;;;14.25;48.99;92424.13;5068733;28;20041;-83
2022/11/21 00:18:57;;;;;;;1.35;1.00;;;;;;;14.26;48.91;92414.72;5062205;28;20028;-84
2022/11/21 00:21:23;;;;;;;1.08;0.95;;;;;;;14.25;49.00;92418.69;5073207;28;20490;-85
2022/11/21 00:23:48;;;;;;;1.63;1.02;;;;;;;14.28;48.99;92420.41;5067657;28;20036;-84
2022/11/21 00:26:14;;;;;;;1.77;1.17;;;;;;;14.26;48.92;92417.44;5067637;28;20045;-84
2022/11/21 00:28:40;;;;;;;1.40;1.10;;;;;;;14.27;48.95;92410.78;5085487;28;20040;-83
2022/11/21 00:31:12;;;;;;;1.00;0.90;;;;;;;14.29;48.80;92421.13;5062067;28;20063;-83
2022/11/21 00:33:46;;;;;;;1.40;1.30;;;;;;;14.26;49.00;92406.59;5050578;28;20470;-83
2022/11/21 00:36:12;;;;;;;1.40;1.20;;;;;;;14.28;48.87;92417.69;5050485;28;20147;-84
2022/11/21 00:38:37;;;;;;;1.20;1.00;;;;;;;14.28;48.95;92419.66;5068700;28;20028;-86
2022/11/21 00:41:03;;;;;;;1.40;1.25;;;;;;;14.28;48.94;92414.22;5067610;28;20299;-86
2022/11/21 00:43:28;;;;;;;1.52;1.00;;;;;;;14.31;48.97;92407.75;5087228;28;20043;-84
2022/11/21 00:45:54;;;;;;;1.58;1.15;;;;;;;14.33;48.74;92399.81;5088095;28;20039;-85
2022/11/21 00:48:19;;;;;;;1.67;1.27;;;;;;;14.31;48.71;92399.59;5088034;28;20067;-84
2022/11/21 00:50:48;;;;;;;0.98;0.75;;;;;;;14.31;48.69;92397.63;5082145;28;20448;-83
2022/11/21 00:53:13;;;;;;;1.08;0.98;;;;;;;14.28;48.69;92392.47;5067590;28;20045;-82
2022/11/21 00:55:39;;;;;;;1.10;1.00;;;;;;;14.27;48.89;92399.16;5087326;28;20047;-82
2022/11/21 00:58:04;;;;;;;1.33;0.85;;;;;;;14.28;48.84;92395.94;5087401;28;20036;-83
2022/11/21 01:00:35;;;;;;;1.40;1.10;;;;;;;14.25;48.67;92393.50;5087734;28;20490;-83
2022/11/21 01:03:01;;;;;;;1.48;1.13;;;;;;;14.29;48.72;92383.09;5067769;28;20037;-83
2022/11/21 01:05:32;;;;;;;0.93;0.90;;;;;;;14.27;48.70;92377.41;5025038;28;20033;-83
2022/11/21 01:07:57;;;;;;;1.25;1.08;;;;;;;14.28;48.92;92379.63;5029599;28;20193;-84
2022/11/21 01:10:22;;;;;;;1.70;1.00;;;;;;;14.26;49.04;92371.25;5076713;28;20123;-84
2022/11/21 01:12:48;;;;;;;1.83;1.10;;;;;;;14.28;48.87;92376.19;5065394;28;20044;-84
2022/11/21 01:15:14;;;;;;;1.35;1.05;;;;;;;14.26;48.52;92382.13;5087140;28;20755;-83
2022/11/21 01:17:39;;;;;;;1.80;1.40;;;;;;;14.23;49.01;92385.84;5085503;28;20486;-84
2022/11/21 01:20:06;;;;;;;1.58;1.17;;;;;;;14.24;48.90;92370.28;5085712;28;20094;-84
2022/11/21 01:22:31;;;;;;;1.05;0.95;;;;;;;14.24;49.00;92373.00;5055821;28;20055;-85
2022/11/21 01:24:57;;;;;;;1.25;1.00;;;;;;;14.26;48.56;92368.53;5067205;28;20029;-84
2022/11/21 01:27:22;;;;;;;0.77;0.77;;;;;;;14.25;48.32;92364.34;5066411;28;20395;-83
2022/11/21 01:29:48;;;;;;;1.33;1.00;;;;;;;14.27;48.57;92358.38;5066636;28;20040;-83
2022/11/21 01:32:17;;;;;;;0.82;0.70;;;;;;;14.28;48.43;92357.16;5032691;28;20033;-83
2022/11/21 01:34:46;;;;;;;1.40;0.90;;;;;;;14.27;48.67;92367.28;5048526;28;20029;-84
2022/11/21 01:37:20;;;;;;;1.02;0.80;;;;;;;14.26;48.59;92367.78;5033682;28;20095;-83
2022/11/21 01:39:46;;;;;;;0.85;0.70;;;;;;;14.28;48.52;92351.72;5069462;28;20514;-84
2022/11/21 01:42:11;;;;;;;0.90;0.70;;;;;;;14.28;48.94;92366.03;5068814;28;20035;-83
2022/11/21 01:44:59;;;;;;;0.90;0.73;;;;;;;14.28;48.90;92357.88;5086617;28;20050;-84
2022/11/21 01:47:36;;;;;;;1.00;0.70;;;;;;;14.28;48.81;92362.59;5052183;28;20032;-83
2022/11/21 01:50:03;;;;;;;0.93;0.77;;;;;;;14.29;48.50;92364.75;5086837;28;20040;-84
2022/11/21 01:52:29;;;;;;;1.10;0.90;;;;;;;14.29;48.76;92353.88;5059405;28;20033;-84
2022/11/21 01:54:56;;;;;;;1.00;0.90;;;;;;;14.31;48.49;92345.22;5055640;28;20044;-84
2022/11/21 01:57:27;;;;;;;1.20;0.70;;;;;;;14.29;48.65;92356.63;5082787;28;20123;-86
2022/11/21 02:00:01;;;;;;;1.02;0.85;;;;;;;14.29;48.66;92353.19;5067017;28;20067;-83
2022/11/21 02:02:38;;;;;;;1.00;0.80;;;;;;;14.29;48.79;92355.91;5051287;28;20040;-83
2022/11/21 02:05:11;;;;;;;1.10;0.88;;;;;;;14.25;48.53;92358.91;5067378;28;20535;-83
2022/11/21 02:07:38;;;;;;;0.60;0.60;;;;;;;14.30;48.56;92349.19;5049725;28;20040;-84
2022/11/21 02:10:04;;;;;;;1.35;0.90;;;;;;;14.27;48.74;92353.69;5075373;28;20036;-86
2022/11/21 02:12:51;;;;;;;0.70;0.70;;;;;;;14.29;48.37;92361.34;5081602;28;20537;-83
2022/11/21 02:15:20;;;;;;;1.52;0.98;;;;;;;14.29;48.69;92355.91;5031300;28;20033;-83
2022/11/21 02:17:49;;;;;;;0.90;0.70;;;;;;;14.28;48.41;92354.44;5043020;28;20115;-84
2022/11/21 02:20:27;;;;;;;0.75;0.60;;;;;;;14.30;48.76;92352.66;5041910;28;20028;-84
2022/11/21 02:22:58;;;;;;;0.95;0.85;;;;;;;14.27;48.70;92353.69;5087603;28;20059;-83
2022/11/21 02:25:26;;;;;;;1.45;0.80;;;;;;;14.26;48.59;92352.22;5086145;28;20120;-83
2022/11/21 02:27:55;;;;;;;0.80;0.70;;;;;;;14.30;48.47;92349.94;5086514;28;20064;-84
2022/11/21 02:30:21;;;;;;;0.70;0.70;;;;;;;14.28;48.42;92352.44;5081090;28;20091;-84
2022/11/21 02:32:46;;;;;;;1.00;0.88;;;;;;;14.28;48.44;92352.44;5049438;28;20531;-84
2022/11/21 02:35:13;;;;;;;0.70;0.70;;;;;;;14.28;48.50;92343.56;5066753;28;20044;-83
2022/11/21 02:37:38;;;;;;;0.55;0.55;;;;;;;14.27;48.22;92350.22;5032708;28;20063;-83
2022/11/21 02:40:09;;;;;;;0.57;0.57;;;;;;;14.24;48.41;92349.28;5067242;28;20047;-84
2022/11/21 02:42:43;;;;;;;0.70;0.70;;;;;;;14.26;48.61;92349.50;5050270;28;20041;-85
2022/11/21 02:45:13;;;;;;;0.73;0.73;;;;;;;14.28;48.50;92343.56;5066868;28;20106;-84
2022/11/21 02:47:43;;;;;;;0.65;0.60;;;;;;;14.27;48.64;92340.09;5065137;28;20411;-84
2022/11/21 02:50:22;;;;;;;0.80;0.77;;;;;;;14.25;48.26;92339.88;5039828;28;20060;-84
2022/11/21 02:52:48;;;;;;;1.23;0.80;;;;;;;14.24;48.56;92334.94;5050059;28;20097;-85
2022/11/21 02:55:14;;;;;;;0.40;0.40;;;;;;;14.24;48.61;92335.69;5065092;28;20041;-82
2022/11/21 02:57:40;;;;;;;0.85;0.80;;;;;;;14.26;48.25;92333.19;5065573;28;20059;-85
2022/11/21 03:00:06;;;;;;;1.05;0.80;;;;;;;14.26;48.66;92329.72;5064051;28;20041;-84
2022/11/21 03:02:38;;;;;;;0.60;0.60;;;;;;;14.25;48.55;92330.97;5048192;28;20040;-83
2022/11/21 03:05:05;;;;;;;0.70;0.55;;;;;;;14.25;48.78;92329.00;5032651;28;20055;-84
2022/11/21 03:07:30;;;;;;;0.70;0.70;;;;;;;14.26;48.56;92327.75;5047516;28;20029;-88
2022/11/21 03:09:56;;;;;;;0.98;0.60;;;;;;;14.26;48.63;92338.63;5067577;28;20032;-84
2022/11/21 03:12:22;;;;;;;0.73;0.73;;;;;;;14.24;48.48;92322.09;5039363;28;20583;-85
2022/11/21 03:14:50;;;;;;;0.63;0.63;;;;;;;14.24;48.37;92335.69;5060718;28;20048;-83
2022/11/21 03:17:17;;;;;;;0.70;0.68;;;;;;;14.23;48.61;92320.63;5067608;28;20045;-84
2022/11/21 03:19:42;;;;;;;0.60;0.60;;;;;;;14.26;48.63;92314.16;5048110;28;20032;-84
2022/11/21 03:22:07;;;;;;;0.70;0.63;;;;;;;14.26;48.54;92325.03;5064750;28;20035;-84
2022/11/21 03:24:33;;;;;;;0.60;0.60;;;;;;;14.21;48.45;92328.53;5066659;28;20047;-82
2022/11/21 03:26:58;;;;;;;1.02;0.70;;;;;;;14.24;48.67;92321.34;5065448;28;20044;-82
2022/11/21 03:29:24;;;;;;;0.80;0.55;;;;;;;14.22;48.57;92319.13;5048313;28;20116;-82
2022/11/21 03:31:49;;;;;;;0.60;0.50;;;;;;;14.23;48.03;92309.75;5077154;28;20036;-85
2022/11/21 03:34:15;;;;;;;0.63;0.60;;;;;;;14.24;48.80;92318.63;5083987;28;20040;-84
2022/11/21 03:36:41;;;;;;;1.00;0.70;;;;;;;14.24;48.62;92316.66;5068291;28;20071;-83
2022/11/21 03:39:09;;;;;;;0.60;0.60;;;;;;;14.23;48.47;92314.44;5047735;28;20118;-83
2022/11/21 03:41:35;;;;;;;0.63;0.63;;;;;;;14.22;48.54;92312.97;5031893;28;20144;-87
2022/11/21 03:44:03;;;;;;;0.80;0.60;;;;;;;14.24;48.63;92308.50;5066693;28;20128;-84
2022/11/21 03:46:30;;;;;;;0.40;0.40;;;;;;;14.27;48.53;92317.63;5064400;28;20037;-83
2022/11/21 03:48:55;;;;;;;0.50;0.50;;;;;;;14.22;48.53;92305.56;5066487;28;20040;-85
2022/11/21 03:51:21;;;;;;;1.33;0.80;;;;;;;14.23;48.40;92309.75;5047230;28;20388;-84
2022/11/21 03:53:46;;;;;;;1.20;0.80;;;;;;;14.20;48.56;92299.88;5065457;28;20040;-83
2022/11/21 03:56:11;;;;;;;1.02;0.60;;;;;;;14.21;48.71;92295.19;5061600;28;20494;-83
2022/11/21 03:58:37;;;;;;;0.47;0.47;;;;;;;14.19;48.48;92298.41;5085900;28;20509;-85
2022/11/21 04:01:05;;;;;;;0.57;0.57;;;;;;;14.19;48.65;92295.69;5071502;28;20040;-87
2022/11/21 04:03:35;;;;;;;0.63;0.50;;;;;;;14.21;48.53;92297.91;5071793;28;20071;-84
2022/11/21 04:06:07;;;;;;;1.23;0.63;;;;;;;14.18;48.50;92298.91;5052506;28;20040;-83
2022/11/21 04:08:33;;;;;;;0.68;0.50;;;;;;;14.19;48.57;92289.53;5025755;28;20036;-84
2022/11/21 04:10:58;;;;;;;0.77;0.60;;;;;;;14.21;48.77;92295.19;5035444;28;20033;-84
2022/11/21 04:13:24;;;;;;;0.40;0.40;;;;;;;14.18;48.71;92290.78;5067869;28;20403;-86
2022/11/21 04:15:49;;;;;;;0.60;0.60;;;;;;;14.21;48.63;92276.16;5068578;28;20040;-84
2022/11/21 04:18:15;;;;;;;0.55;0.50;;;;;;;14.21;48.47;92287.78;5069518;28;20039;-84
2022/11/21 04:20:40;;;;;;;1.08;0.63;;;;;;;14.19;48.58;92292.97;5068432;28;20037;-84
2022/11/21 04:23:06;;;;;;;0.82;0.50;;;;;;;14.21;48.68;92292.47;5068235;28;20564;-84
2022/11/21 04:25:32;;;;;;;0.60;0.60;;;;;;;14.21;48.60;92284.31;5053282;28;20340;-84
2022/11/21 04:28:00;;;;;;;0.65;0.60;;;;;;;14.20;48.56;92282.84;5050909;28;20048;-83
2022/11/21 04:30:26;;;;;;;0.63;0.63;;;;;;;14.17;48.49;92276.44;5065044;28;20111;-83
2022/11/21 04:32:52;;;;;;;0.93;0.50;;;;;;;14.17;48.69;92287.31;5067316;28;20234;-84
2022/11/21 04:35:17;;;;;;;0.55;0.55;;;;;;;14.21;48.33;92282.34;5067226;28;20038;-84
2022/11/21 04:37:43;;;;;;;2.08;0.70;;;;;;;14.21;48.58;92287.03;5050426;28;20036;-84
2022/11/21 04:40:08;;;;;;;1.48;0.60;;;;;;;14.19;48.59;92273.22;5067456;28;20032;-84
2022/11/21 04:42:34;;;;;;;0.82;0.60;;;;;;;14.19;48.00;92278.66;5069279;28;20040;-84
2022/11/21 04:45:02;;;;;;;0.93;0.70;;;;;;;14.20;48.63;92278.13;5068929;28;20094;-83
2022/11/21 04:47:52;;;;;;;1.75;0.60;;;;;;;14.23;48.87;92279.09;5020673;28;20630;-83
2022/11/21 04:50:17;;;;;;;1.00;0.65;;;;;;;14.20;48.59;92285.56;5036254;28;20471;-87
2022/11/21 04:52:53;;;;;;;0.50;0.50;;;;;;;14.18;48.49;92274.47;5067923;28;20063;-85
2022/11/21 04:55:19;;;;;;;0.55;0.52;;;;;;;14.22;48.81;92277.63;5037431;28;20044;-86
2022/11/21 04:57:45;;;;;;;0.40;0.40;;;;;;;14.21;48.54;92271.47;5088296;28;20040;-85
2022/11/21 05:00:13;;;;;;;0.70;0.70;;;;;;;14.25;48.48;92271.19;5070931;28;20494;-83
2022/11/21 05:02:38;;;;;;;0.57;0.55;;;;;;;14.23;48.26;92268.22;5088598;28;20083;-89
2022/11/21 05:05:10;;;;;;;0.50;0.50;;;;;;;14.25;48.48;92273.91;5069316;28;20040;-85
2022/11/21 05:07:39;;;;;;;0.95;0.57;;;;;;;14.25;48.46;92263.75;5047963;28;20364;-83
2022/11/21 05:10:05;;;;;;;0.77;0.60;;;;;;;14.24;48.44;92258.84;5068130;28;20040;-85
2022/11/21 05:15:15;;;;;;;0.40;0.40;;;;;;;14.20;48.58;92258.38;5082227;28;20100;-83
2022/11/21 05:17:43;;;;;;;0.35;0.35;;;;;;;14.21;48.38;92255.16;5057325;28;20037;-84
2022/11/21 05:20:09;;;;;;;0.70;0.52;;;;;;;14.22;49.30;92253.91;5048015;28;20073;-85
2022/11/21 05:22:35;;;;;;;0.90;0.70;;;;;;;14.23;48.66;92247.22;5050742;28;20836;-87
2022/11/21 05:25:00;;;;;;;0.50;0.50;;;;;;;14.23;48.46;92243.78;5068326;28;20048;-82
2022/11/21 05:27:26;;;;;;;0.63;0.50;;;;;;;14.18;48.46;92244.56;5066700;28;20036;-86
2022/11/21 05:29:52;;;;;;;2.10;0.73;;;;;;;14.20;48.41;92240.09;5062690;28;20047;-84
2022/11/21 05:32:18;;;;;;;1.15;0.60;;;;;;;14.17;48.29;92238.41;5055336;28;20044;-82
2022/11/21 05:34:54;;;;;;;13.27;9.80;;;;;;;14.23;48.56;92239.06;5064660;28;20178;-84
2022/11/21 05:37:20;;;;;;;4.55;3.05;;;;;;;14.24;48.88;92242.53;5061872;28;20036;-82
2022/11/21 05:39:46;;;;;;;12.00;6.78;;;;;;;14.25;48.67;92236.59;5034481;28;20040;-83
2022/11/21 05:42:12;;;;;;;17.77;9.35;;;;;;;14.28;48.75;92230.13;5077120;28;20039;-85
2022/11/21 05:44:38;;;;;;;34.70;17.60;;;;;;;14.30;48.62;92224.88;5068146;28;20028;-83
2022/11/21 05:47:03;;;;;;;8.25;5.00;;;;;;;14.30;48.64;92229.59;5029685;28;20436;-85
2022/11/21 05:49:29;;;;;;;19.27;14.02;;;;;;;14.26;48.53;92221.00;5028179;28;20044;-89
2022/11/21 05:51:54;;;;;;;17.50;11.57;;;;;;;14.28;48.65;92216.53;5035302;28;20040;-86
2022/11/21 05:54:19;;;;;;;24.23;9.23;;;;;;;14.33;48.50;92225.84;5027621;28;20063;-87
2022/11/21 05:56:45;;;;;;;32.35;10.52;;;;;;;14.29;48.63;92214.56;5024698;28;20036;-87
2022/11/21 05:59:10;;;;;;;82.50;21.73;;;;;;;14.30;48.44;92219.44;5014402;28;20087;-87
2022/11/21 06:04:20;;;;;;;61.08;22.63;;;;;;;14.17;47.06;92207.75;5061868;28;20529;-86
2022/11/21 06:06:49;;;;;;;75.57;23.23;;;;;;;14.16;46.87;92214.44;5003261;28;20677;-85
2022/11/21 06:09:15;;;;;;;73.93;28.55;;;;;;;14.17;47.62;92219.38;5010850;28;20036;-86
2022/11/21 06:11:40;;;;;;;56.55;22.58;;;;;;;14.10;46.71;92211.78;5021506;28;20049;-86
2022/11/21 06:14:07;;;;;;;81.20;28.27;;;;;;;14.06;46.58;92211.34;5059936;28;20256;-85
2022/11/21 06:16:35;;;;;;;91.30;35.20;;;;;;;14.08;46.71;92215.00;5024397;28;20044;-87
2022/11/21 06:19:04;;;;;;;70.75;33.45;;;;;;;14.07;47.37;92215.53;5040214;28;20131;-84
2022/11/21 06:21:33;;;;;;;73.70;41.22;;;;;;;14.14;47.37;92217.66;5026052;28;20040;-84
2022/11/21 06:23:58;;;;;;;101.90;61.20;;;;;;;14.14;48.16;92220.38;5067877;28;20069;-85
2022/11/21 06:26:24;;;;;;;123.00;65.30;;;;;;;14.17;47.92;92210.47;5064499;28;20044;-84
2022/11/21 06:28:50;;;;;;;142.10;75.88;;;;;;;14.18;47.79;92214.66;5067942;28;20041;-85
2022/11/21 06:31:18;;;;;;;139.93;79.05;;;;;;;14.20;47.53;92212.91;5081620;28;20046;-87
2022/11/21 06:33:43;;;;;;;278.63;122.32;;;;;;;14.20;47.52;92215.63;5050020;28;20044;-86
2022/11/21 06:36:10;;;;;;;134.27;74.35;;;;;;;14.17;47.59;92218.63;5047162;28;20040;-87
2022/11/21 06:38:36;;;;;;;120.70;71.32;;;;;;;14.17;47.79;92215.91;5057660;28;20774;-86
2022/11/21 06:41:13;;;;;;;133.05;82.90;;;;;;;14.20;47.70;92209.47;5049137;28;20123;-87
2022/11/21 06:43:39;;;;;;;113.95;75.22;;;;;;;14.20;48.25;92207.47;5046439;28;20040;-86
2022/11/21 06:46:04;;;;;;;137.73;91.10;;;;;;;14.22;47.84;92213.13;5037954;28;20136;-85
2022/11/21 06:48:31;;;;;;;208.98;131.43;;;;;;;14.24;47.79;92210.66;5047651;28;20033;-85
2022/11/21 06:50:57;;;;;;;207.63;136.18;;;;;;;14.22;47.59;92207.69;5056864;28;20104;-86
2022/11/21 06:53:23;;;;;;;235.43;144.27;;;;;;;14.24;47.82;92212.63;5069018;28;20124;-86
2022/11/21 06:55:49;;;;;;;216.45;133.95;;;;;;;14.24;48.00;92213.38;5045401;28;20115;-86
2022/11/21 06:58:14;;;;;;;215.13;142.15;;;;;;;14.26;47.79;92212.84;5060604;28;20174;-84
2022/11/21 07:00:39;;;;;;;222.80;143.10;;;;;;;14.29;48.00;92217.97;5042189;28;20039;-86
2022/11/21 07:03:07;;;;;;;203.20;129.30;;;;;;;14.32;48.08;92216.22;5062988;28;20047;-86
2022/11/21 07:05:33;;;;;;;195.13;124.68;;;;;;;14.32;47.95;92224.38;5039062;28;20094;-87
2022/11/21 07:08:02;;;;;;;170.50;113.35;;;;;;;14.36;48.11;92227.53;5027628;28;20034;-88
2022/11/21 07:10:28;;;;;;;145.18;103.13;;;;;;;14.40;47.66;92228.00;5036950;28;20051;-87
2022/11/21 07:15:45;;;;;;;146.27;98.70;;;;;;;14.51;47.88;92229.84;5017413;28;20098;-88
2022/11/21 07:18:11;;;;;;;140.40;101.50;;;;;;;14.49;47.97;92232.38;4967900;28;20108;-87
2022/11/21 07:20:38;;;;;;;131.45;91.60;;;;;;;14.50;47.99;92234.59;4944541;28;20047;-86
2022/11/21 07:23:07;;;;;;;129.18;90.53;;;;;;;14.54;47.93;92226.09;4946666;28;20100;-85
2022/11/21 07:25:32;;;;;;;132.57;95.97;;;;;;;14.58;47.23;92232.72;4946150;28;20093;-86
2022/11/21 07:27:59;;;;;;;122.22;93.18;;;;;;;14.56;47.35;92229.06;4949703;28;20058;-83
2022/11/21 07:30:24;;;;;;;133.07;90.55;;;;;;;14.54;47.46;92243.16;4931668;28;20065;-82
2022/11/21 07:32:57;;;;;;;129.40;91.60;;;;;;;14.49;47.59;92241.28;4947686;28;20046;-86
2022/11/21 07:35:25;;;;;;;165.77;108.35;;;;;;;14.49;47.66;92246.72;4966423;28;20097;-86
2022/11/21 07:38:03;;;;;;;228.98;119.57;;;;;;;14.45;47.76;92248.97;4955205;28;20054;-83
2022/11/21 07:40:28;;;;;;;150.20;92.85;;;;;;;14.47;47.50;92254.63;4973589;28;20077;-85
2022/11/21 07:42:59;;;;;;;153.20;97.28;;;;;;;14.46;47.88;92258.59;4974679;28;20117;-86
2022/11/21 07:45:25;;;;;;;;;;;;;;;14.47;47.96;92251.91;4965648;28;20034;-84
2022/11/21 07:48:01;;;;;;;251.90;135.30;;;;;;;14.45;47.73;92248.97;4990981;28;19921;-86
2022/11/21 07:50:26;;;;;;;178.73;107.63;;;;;;;14.44;47.84;92260.38;4985115;28;20134;-85
2022/11/21 07:52:57;;;;;;;194.57;104.13;;;;;;;14.44;47.83;92268.53;4975702;28;20089;-85
2022/11/21 07:55:23;;;;;;;;;;;;;;;14.44;47.66;92263.81;4964208;28;20042;-85
2022/11/21 07:57:58;;;;;;;161.55;92.78;;;;;;;14.42;47.85;92271.00;4987090;28;19925;-86
2022/11/21 08:00:25;;;;;;;161.07;90.70;;;;;;;14.40;47.75;92263.34;4996484;28;20049;-88
2022/11/21 08:02:52;;;;;;;152.35;91.13;;;;;;;14.39;48.15;92270.75;4993791;28;20089;-87
2022/11/21 08:05:17;;;;;;;142.38;81.13;;;;;;;14.40;47.92;92266.06;4995721;28;20376;-86
2022/11/21 08:07:48;;;;;;;147.93;83.80;;;;;;;14.39;47.89;92259.16;5007062;28;20129;-86
2022/11/21 08:10:21;;;;;;;141.60;75.47;;;;;;;14.39;48.31;92268.03;5055832;28;20188;-87
2022/11/21 08:12:52;;;;;;;171.10;91.35;;;;;;;14.39;47.95;92259.16;5080524;28;20055;-86
2022/11/21 08:15:18;;;;;;;202.75;118.60;;;;;;;14.37;47.79;92251.50;5082270;28;20145;-85
2022/11/21 08:17:43;;;;;;;202.65;113.82;;;;;;;14.39;47.79;92267.31;5062873;28;20058;-86
2022/11/21 08:20:14;;;;;;;208.27;117.30;;;;;;;14.37;48.24;92265.09;5053382;28;20483;-87
2022/11/21 08:22:40;;;;;;;281.58;144.10;;;;;;;14.38;48.07;92263.13;5063203;28;20036;-85
2022/11/21 08:25:13;;;;;;;260.92;128.30;;;;;;;14.40;47.81;92280.41;5072264;28;20043;-88
2022/11/21 08:27:49;;;;;;;250.00;128.85;;;;;;;14.39;47.83;92278.19;5091504;28;20496;-85
2022/11/21 08:30:14;;;;;;;237.73;127.65;;;;;;;14.40;48.06;92274.97;5042715;28;20410;-87
2022/11/21 08:32:40;;;;;;;259.60;136.98;;;;;;;14.42;48.07;92273.72;5054000;28;20778;-87
2022/11/21 08:35:06;;;;;;;276.17;143.55;;;;;;;14.44;47.73;92268.53;5043232;28;20048;-87
2022/11/21 08:37:31;;;;;;;265.98;139.25;;;;;;;14.44;48.07;92277.41;5056177;28;20117;-86
2022/11/21 08:39:58;;;;;;;240.40;137.38;;;;;;;14.45;48.19;92278.88;5065569;28;20044;-88
2022/11/21 08:42:24;;;;;;;274.65;140.35;;;;;;;14.45;48.11;92283.59;5062240;28;20036;-86
2022/11/21 08:44:50;;;;;;;288.30;155.15;;;;;;;14.47;47.75;92283.81;5083302;28;20091;-86
2022/11/21 08:47:16;;;;;;;355.77;188.27;;;;;;;14.48;48.13;92282.56;5067013;28;20044;-88
2022/11/21 08:49:41;;;;;;;323.77;180.23;;;;;;;14.49;48.16;92271.19;5056444;28;20069;-87
2022/11/21 08:52:07;;;;;;;391.10;222.75;;;;;;;14.48;48.17;92280.59;5070093;28;20048;-84
2022/11/21 08:54:33;;;;;;;365.85;210.07;;;;;;;14.50;48.13;92275.38;5089969;28;20049;-85
2022/11/21 08:56:59;;;;;;;337.50;196.57;;;;;;;14.47;48.03;92276.38;5069354;28;20040;-83
2022/11/21 08:59:24;;;;;;;304.70;176.90;;;;;;;14.47;48.47;92276.38;5073230;28;20386;-86
2022/11/21 09:01:51;;;;;;;306.80;169.27;;;;;;;14.49;48.42;92273.16;5059010;28;20407;-86
2022/11/21 09:04:17;;;;;;;287.33;162.00;;;;;;;14.50;48.27;92274.63;5083595;28;20036;-87
2022/11/21 09:06:42;;;;;;;338.88;201.23;;;;;;;14.48;47.90;92277.88;5054908;28;20560;-87
2022/11/21 09:09:08;;;;;;;349.10;205.05;;;;;;;14.47;48.17;92279.13;5049390;28;20527;-88
2022/11/21 09:11:34;;;;;;;375.85;202.98;;;;;;;14.49;48.10;92284.78;5069325;28;20033;-87
2022/11/21 09:19:54;;;;;;;317.48;170.93;;;;;;;14.50;48.11;92301.81;5049106;28;20469;-89
2022/11/21 09:22:28;;;;;;;321.70;161.02;;;;;;;14.50;48.34;92305.28;5045852;28;20054;-89
2022/11/21 09:24:57;;;;;;;287.55;155.93;;;;;;;14.50;48.38;92305.28;5043762;28;20044;-87
2022/11/21 09:27:23;;;;;;;176.50;87.80;;;;;;;14.38;46.38;92299.19;5051238;28;20127;-88
2022/11/21 09:29:49;;;;;;;152.07;79.32;;;;;;;14.35;45.85;92304.91;5082018;28;20097;-86
2022/11/21 09:32:14;;;;;;;134.90;61.28;;;;;;;14.34;45.84;92309.59;5026493;28;20041;-90
2022/11/21 09:34:40;;;;;;;131.27;60.78;;;;;;;14.34;46.00;92311.59;5061649;28;20089;-86
2022/11/21 09:37:05;;;;;;;135.25;63.13;;;;;;;14.31;46.05;92313.34;5075464;28;20041;-91
2022/11/21 09:39:38;;;;;;;128.15;64.68;;;;;;;14.32;46.73;92314.81;5043987;28;20041;-87
2022/11/21 09:42:12;;;;;;;139.43;67.32;;;;;;;14.37;46.72;92324.91;5043893;28;20435;-87
2022/11/21 09:44:53;;;;;;;151.80;78.03;;;;;;;14.37;47.50;92326.88;5063571;28;20064;-89
2022/11/21 09:47:18;;;;;;;236.60;123.15;;;;;;;14.36;47.53;92323.44;5054221;28;20035;-90
2022/11/21 09:49:48;;;;;;;240.00;126.72;;;;;;;14.38;47.46;92331.81;5088111;28;20029;-90
2022/11/21 09:52:14;;;;;;;212.52;117.95;;;;;;;14.40;47.95;92334.03;5051921;28;20035;-88
2022/11/21 09:54:46;;;;;;;217.35;119.93;;;;;;;14.42;48.08;92319.94;5045003;28;20128;-88
2022/11/21 09:57:12;;;;;;;239.45;127.93;;;;;;;14.42;47.64;92328.84;5050864;28;20044;-88
2022/11/21 09:59:38;;;;;;;246.50;129.93;;;;;;;14.42;47.64;92323.41;5069269;28;20066;-86
2022/11/21 10:02:13;;;;;;;177.30;90.70;;;;;;;14.37;47.26;92330.34;5043009;28;20415;-85
2022/11/21 10:04:39;;;;;;;141.85;70.10;;;;;;;14.35;46.37;92327.41;5036148;28;20046;-84
2022/11/21 10:07:08;;;;;;;116.22;51.22;;;;;;;14.34;46.38;92304.19;5064596;28;20060;-90
2022/11/21 10:09:37;;;;;;;153.43;48.05;;;;;;;14.29;45.89;92307.69;5050781;28;20392;-88
2022/11/21 10:12:43;;;;;;;93.57;38.63;;;;;;;14.25;46.08;92301.81;5095394;28;20044;-92
2022/11/21 10:15:31;;;;;;;80.60;31.48;;;;;;;14.21;45.59;92304.06;5059959;28;20065;-90
2022/11/21 10:18:12;;;;;;;63.50;27.35;;;;;;;14.19;45.63;92308.53;5070401;28;20094;-92
2022/11/21 10:21:02;;;;;;;71.38;31.38;;;;;;;14.21;46.19;92314.22;5067706;28;20070;-92
2022/11/21 10:24:03;;;;;;;121.47;53.75;;;;;;;14.23;46.32;92320.63;5071011;28;20040;-87
2022/11/21 10:26:59;;;;;;;130.15;68.55;;;;;;;14.27;47.06;92320.34;5066405;28;20064;-87
2022/11/21 10:29:31;;;;;;;136.40;70.68;;;;;;;14.26;46.91;92308.72;5052941;28;20029;-86
2022/11/21 10:32:00;;;;;;;134.27;71.65;;;;;;;14.29;47.29;92313.13;5037799;28;20036;-90
2022/11/21 10:34:28;;;;;;;132.95;68.82;;;;;;;14.31;47.42;92313.34;5058794;28;20482;-89
2022/11/21 10:37:02;;;;;;;172.43;70.63;;;;;;;14.32;47.90;92314.09;5058724;28;20090;-90
2022/11/21 10:39:36;;;;;;;142.98;65.07;;;;;;;14.39;47.57;92316.97;5067995;28;20059;-85
2022/11/21 10:42:11;;;;;;;176.07;74.22;;;;;;;14.36;48.17;92306.38;5054210;28;20127;-85
2022/11/21 10:47:29;;;;;;;171.13;52.75;;;;;;;14.30;47.65;92320.03;5085506;28;20177;-88
2022/11/21 10:50:32;;;;;;;147.77;47.30;;;;;;;14.25;47.40;92311.94;5036892;28;20041;-87
2022/11/21 10:56:03;;;;;;;143.85;69.70;;;;;;;14.31;47.58;92299.03;5072168;28;20454;-86
2022/11/21 10:58:40;;;;;;;154.38;71.97;;;;;;;14.26;47.68;92303.28;5061612;28;20446;-86
2022/11/21 11:01:06;;;;;;;196.27;87.60;;;;;;;14.27;48.15;92309.47;5034296;28;20135;-85
2022/11/21 11:03:31;;;;;;;219.65;102.30;;;;;;;14.29;48.06;92304.25;5048709;28;20120;-86
2022/11/21 11:05:57;;;;;;;177.52;93.85;;;;;;;14.29;48.47;92296.09;5032751;28;20090;-85
2022/11/21 11:08:22;;;;;;;166.23;80.78;;;;;;;14.33;48.49;92299.25;5065451;28;20051;-86
2022/11/21 11:11:04;;;;;;;177.23;90.43;;;;;;;14.32;48.12;92301.22;5069353;28;20094;-86
2022/11/21 11:13:33;;;;;;;153.23;83.00;;;;;;;14.32;48.06;92300.50;5071224;28;20028;-88
2022/11/21 11:16:10;;;;;;;154.32;77.85;;;;;;;14.31;47.71;92297.03;5053873;28;20035;-87
2022/11/21 11:18:49;;;;;;;146.43;74.10;;;;;;;14.33;48.59;92297.25;5077151;28;20479;-86
2022/11/21 11:21:15;;;;;;;568.47;441.52;;;;;;;14.35;47.92;92285.88;5073779;28;20056;-86
2022/11/21 11:23:41;;;;;;;518.72;422.40;;;;;;;14.36;48.03;92290.81;5052823;28;20045;-86
2022/11/21 11:26:27;;;;;;;172.63;101.22;;;;;;;14.38;48.29;92282.88;5054789;28;20135;-88
2022/11/21 11:28:54;;;;;;;143.00;75.22;;;;;;;14.37;48.07;92286.09;5074234;28;20040;-87
2022/11/21 11:31:20;;;;;;;129.88;72.03;;;;;;;14.36;48.16;92276.47;5072413;28;20040;-86
2022/11/21 11:33:52;;;;;;;121.43;68.85;;;;;;;14.36;48.20;92288.09;5069375;28;20097;-85
2022/11/21 11:36:36;;;;;;;118.22;63.60;;;;;;;14.36;48.06;92279.94;5051301;28;20040;-86
2022/11/21 11:39:08;;;;;;;116.05;60.15;;;;;;;14.36;48.21;92268.31;5036978;28;20036;-87
2022/11/21 11:47:42;;;;;;;93.18;49.20;;;;;;;14.43;48.75;92267.03;5075357;28;20035;-82
2022/11/21 11:50:15;;;;;;;92.32;52.05;;;;;;;14.45;48.17;92272.72;5066541;28;20037;-83
2022/11/21 11:52:59;;;;;;;92.97;49.17;;;;;;;14.46;48.27;92269.47;5058140;28;20085;-83
2022/11/21 11:55:34;;;;;;;110.50;65.80;;;;;;;14.46;48.41;92271.47;5065981;28;20075;-87